Time;durP1;ratioP1;P1;durP2;ratioP2;P2;SDS_P1;SDS_P2;PMS_P1;PMS_P2;Temp;Humidity;BMP_temperature;BMP_pressure;BME280_temperature;BME280_humidity;BME280_pressure;Samples;Min_cycle;Max_cycle;Signal;HPM_P1;HPM_P2
2021/03/23 00:00:27;;;;;;;6.07;5.30;;;7.00;99.90;;;;;;4968937;28;20946;-78
2021/03/23 00:02:54;;;;;;;8.77;5.47;;;7.00;99.90;;;;;;4964266;28;20941;-77
2021/03/23 00:05:20;;;;;;;11.10;6.50;;;7.10;99.90;;;;;;4966806;28;20981;-78
2021/03/23 00:07:45;;;;;;;7.67;5.33;;;7.00;99.90;;;;;;4970323;28;20445;-78
2021/03/23 00:10:12;;;;;;;6.90;5.40;;;7.00;99.90;;;;;;4963912;28;20634;-77
2021/03/23 00:12:38;;;;;;;10.53;5.40;;;7.00;99.90;;;;;;4965478;28;20526;-78
2021/03/23 00:15:07;;;;;;;10.00;6.10;;;7.10;99.90;;;;;;4967894;28;20428;-76
2021/03/23 00:17:33;;;;;;;13.40;6.47;;;7.10;99.90;;;;;;4983640;28;20461;-76
2021/03/23 00:19:59;;;;;;;8.07;5.50;;;7.20;99.90;;;;;;4973534;28;20444;-77
2021/03/23 00:22:24;;;;;;;13.73;5.67;;;7.10;99.90;;;;;;4986732;28;20229;-77
2021/03/23 00:24:50;;;;;;;5.40;4.50;;;7.20;99.90;;;;;;4978989;28;20218;-78
2021/03/23 00:27:16;;;;;;;6.97;4.90;;;7.20;99.90;;;;;;4961189;28;20209;-78
2021/03/23 00:29:44;;;;;;;10.07;5.70;;;7.10;99.90;;;;;;4964449;28;20265;-78
2021/03/23 00:32:10;;;;;;;7.33;4.70;;;7.10;99.90;;;;;;4962251;28;20236;-79
2021/03/23 00:34:35;;;;;;;7.73;5.63;;;7.10;99.90;;;;;;4949871;28;20481;-78
2021/03/23 00:37:02;;;;;;;8.93;5.80;;;7.10;99.90;;;;;;4964978;28;20434;-78
2021/03/23 00:39:28;;;;;;;13.57;6.43;;;7.10;99.90;;;;;;4965406;28;20245;-79
2021/03/23 00:41:54;;;;;;;8.83;5.50;;;7.00;99.90;;;;;;4967439;28;20481;-78
2021/03/23 00:44:20;;;;;;;8.43;6.47;;;7.00;99.90;;;;;;4965589;28;20441;-78
2021/03/23 00:46:45;;;;;;;9.33;6.17;;;6.90;99.90;;;;;;4963180;28;20255;-78
2021/03/23 00:49:11;;;;;;;13.03;6.47;;;6.90;99.90;;;;;;4959521;28;20289;-78
2021/03/23 00:51:37;;;;;;;8.00;5.50;;;6.90;99.90;;;;;;4962291;28;20214;-77
2021/03/23 00:54:02;;;;;;;7.83;5.53;;;7.00;99.90;;;;;;4962791;28;20195;-78
2021/03/23 00:56:28;;;;;;;10.10;6.10;;;7.00;99.90;;;;;;4962754;28;20187;-78
2021/03/23 00:58:54;;;;;;;9.53;5.47;;;7.10;99.90;;;;;;4964665;28;21148;-78
2021/03/23 01:01:19;;;;;;;8.10;5.43;;;7.00;99.90;;;;;;4966622;28;20216;-78
2021/03/23 01:03:45;;;;;;;8.70;4.93;;;7.00;99.90;;;;;;4959300;28;20219;-78
2021/03/23 01:06:11;;;;;;;10.97;5.53;;;7.10;99.90;;;;;;4963174;28;20541;-78
2021/03/23 01:08:36;;;;;;;8.50;5.20;;;7.20;99.90;;;;;;4957336;28;20199;-78
2021/03/23 01:11:02;;;;;;;13.03;6.80;;;7.10;99.90;;;;;;4960710;28;20582;-78
2021/03/23 01:13:28;;;;;;;7.23;6.00;;;7.20;99.90;;;;;;4962088;28;20197;-78
2021/03/23 01:15:54;;;;;;;10.50;6.63;;;7.20;99.90;;;;;;4967839;28;21094;-77
2021/03/23 01:18:19;;;;;;;8.17;5.77;;;7.30;99.90;;;;;;4959732;28;20194;-78
2021/03/23 01:20:45;;;;;;;8.33;5.47;;;7.30;99.90;;;;;;4962441;28;20210;-78
2021/03/23 01:23:11;;;;;;;12.40;6.97;;;7.10;99.90;;;;;;4961624;28;20563;-79
2021/03/23 01:25:36;;;;;;;10.87;5.53;;;7.00;99.90;;;;;;4964211;28;20682;-78
2021/03/23 01:28:02;;;;;;;10.27;5.70;;;7.00;99.90;;;;;;4966344;28;20190;-78
2021/03/23 01:30:29;;;;;;;9.67;6.27;;;7.10;99.90;;;;;;4961960;28;20734;-78
2021/03/23 01:32:55;;;;;;;9.70;6.63;;;7.00;99.90;;;;;;4961524;28;20188;-77
2021/03/23 01:35:23;;;;;;;6.93;5.70;;;7.00;99.90;;;;;;4961024;28;20517;-77
2021/03/23 01:37:49;;;;;;;14.73;7.70;;;7.00;99.90;;;;;;4962832;28;20442;-78
2021/03/23 01:40:17;;;;;;;6.83;6.13;;;7.10;99.90;;;;;;4968163;28;21189;-77
2021/03/23 01:42:52;;;;;;;10.03;6.20;;;7.00;99.90;;;;;;4961063;28;20195;-78
2021/03/23 01:45:40;;;;;;;15.20;6.50;;;7.00;99.90;;;;;;4972602;28;20537;-77
2021/03/23 01:48:21;;;;;;;7.03;5.83;;;7.00;99.90;;;;;;4976591;28;20426;-77
2021/03/23 01:51:01;;;;;;;6.77;5.70;;;7.00;99.90;;;;;;4971902;28;20508;-77
2021/03/23 01:53:40;;;;;;;9.37;6.27;;;7.10;99.90;;;;;;4975020;28;20460;-77
2021/03/23 01:56:07;;;;;;;7.67;5.60;;;7.10;99.90;;;;;;4971819;28;20437;-77
2021/03/23 01:58:36;;;;;;;13.70;7.00;;;7.20;99.90;;;;;;4968131;28;20496;-78
2021/03/23 02:01:04;;;;;;;8.30;6.20;;;7.20;99.90;;;;;;4970509;28;20472;-79
2021/03/23 02:03:29;;;;;;;6.97;6.30;;;7.20;99.90;;;;;;4966223;28;20442;-77
2021/03/23 02:05:57;;;;;;;12.50;6.70;;;7.20;99.90;;;;;;4966471;28;20477;-78
2021/03/23 02:08:23;;;;;;;6.60;5.53;;;7.20;99.90;;;;;;4968805;28;20253;-79
2021/03/23 02:10:52;;;;;;;8.90;6.70;;;7.20;99.90;;;;;;4964573;28;20449;-78
2021/03/23 02:13:18;;;;;;;8.20;5.87;;;7.30;99.90;;;;;;4967716;28;20517;-77
2021/03/23 02:15:43;;;;;;;10.07;6.30;;;7.30;99.90;;;;;;4965982;28;20557;-77
2021/03/23 02:18:17;;;;;;;7.70;6.53;;;7.30;99.90;;;;;;4969322;28;20206;-78
2021/03/23 02:20:57;;;;;;;7.77;6.47;;;7.20;99.90;;;;;;4965668;28;20569;-78
2021/03/23 02:23:48;;;;;;;12.00;6.70;;;7.10;99.90;;;;;;4964464;28;20448;-78
2021/03/23 02:26:19;;;;;;;9.57;6.67;;;7.00;99.90;;;;;;4966257;28;20496;-78
2021/03/23 02:28:53;;;;;;;10.30;6.43;;;7.00;99.90;;;;;;4964123;28;20438;-77
2021/03/23 02:31:30;;;;;;;9.43;5.83;;;6.90;99.90;;;;;;4967699;28;20530;-78
2021/03/23 02:33:57;;;;;;;11.20;7.80;;;6.90;99.90;;;;;;4962203;28;20446;-77
2021/03/23 02:36:23;;;;;;;9.67;6.10;;;6.90;99.90;;;;;;4963339;28;20450;-78
2021/03/23 02:38:49;;;;;;;9.90;6.20;;;6.90;99.90;;;;;;4965065;28;20449;-78
2021/03/23 02:41:15;;;;;;;10.97;6.83;;;6.90;99.90;;;;;;4965235;28;20503;-78
2021/03/23 02:43:41;;;;;;;9.70;5.90;;;6.90;99.90;;;;;;4965065;28;20212;-76
2021/03/23 02:46:06;;;;;;;8.43;6.57;;;6.90;99.90;;;;;;4977494;28;20545;-77
2021/03/23 02:48:32;;;;;;;8.50;6.77;;;6.90;99.90;;;;;;4986750;28;20186;-77
2021/03/23 02:50:58;;;;;;;12.57;6.80;;;6.80;99.90;;;;;;4979660;28;20468;-76
2021/03/23 02:53:24;;;;;;;9.07;6.23;;;6.80;99.90;;;;;;4987826;28;20183;-77
2021/03/23 02:55:50;;;;;;;10.53;6.33;;;6.80;99.90;;;;;;4973488;28;20231;-78
2021/03/23 02:58:16;;;;;;;15.10;7.40;;;6.70;99.90;;;;;;4964836;28;20446;-78
2021/03/23 03:00:41;;;;;;;14.10;7.00;;;6.70;99.90;;;;;;4967999;28;20274;-78
2021/03/23 03:03:07;;;;;;;10.07;7.30;;;6.70;99.90;;;;;;4964670;28;20434;-79
2021/03/23 03:05:33;;;;;;;13.40;7.10;;;6.70;99.90;;;;;;4964749;28;20762;-77
2021/03/23 03:07:59;;;;;;;9.77;6.43;;;6.80;99.90;;;;;;4967363;28;20205;-78
2021/03/23 03:10:25;;;;;;;10.27;6.23;;;6.70;99.90;;;;;;4963621;28;20609;-78
2021/03/23 03:12:51;;;;;;;8.60;7.10;;;6.50;99.90;;;;;;4963606;28;20465;-78
2021/03/23 03:15:17;;;;;;;11.60;7.23;;;6.50;99.90;;;;;;4963226;28;20489;-78
2021/03/23 03:17:43;;;;;;;9.47;6.40;;;6.50;99.90;;;;;;4960348;28;20459;-77
2021/03/23 03:20:11;;;;;;;11.37;6.37;;;6.60;99.90;;;;;;4965036;28;20475;-77
2021/03/23 03:22:37;;;;;;;9.10;6.97;;;6.60;99.90;;;;;;4965102;28;20723;-78
2021/03/23 03:25:05;;;;;;;9.00;6.70;;;6.50;99.90;;;;;;4971089;28;20534;-78
2021/03/23 03:27:30;;;;;;;10.60;6.20;;;6.50;99.90;;;;;;4964538;28;20259;-77
2021/03/23 03:29:56;;;;;;;8.60;7.27;;;6.40;99.90;;;;;;4967608;28;20438;-79
2021/03/23 03:32:22;;;;;;;10.43;6.73;;;6.30;99.90;;;;;;4965331;28;20214;-79
2021/03/23 03:34:48;;;;;;;9.60;6.80;;;6.30;99.90;;;;;;4967511;28;20194;-77
2021/03/23 03:37:14;;;;;;;8.77;6.20;;;6.40;99.90;;;;;;4968061;28;20448;-77
2021/03/23 03:39:40;;;;;;;11.20;6.77;;;6.50;99.90;;;;;;4965668;28;20795;-78
2021/03/23 03:42:06;;;;;;;9.00;6.63;;;6.50;99.90;;;;;;4965993;28;20257;-78
2021/03/23 03:44:32;;;;;;;13.20;7.23;;;6.40;99.90;;;;;;4966974;28;20430;-78
2021/03/23 03:46:58;;;;;;;8.53;6.53;;;6.40;99.90;;;;;;4966613;28;20564;-78
2021/03/23 03:49:23;;;;;;;9.70;6.10;;;6.50;99.90;;;;;;4967174;28;20241;-78
2021/03/23 03:51:49;;;;;;;12.20;6.47;;;6.60;99.90;;;;;;4969746;28;21038;-78
2021/03/23 03:54:15;;;;;;;9.27;6.40;;;6.60;99.90;;;;;;4963987;28;20196;-79
2021/03/23 03:56:41;;;;;;;8.47;6.13;;;6.70;99.90;;;;;;4969505;28;20195;-79
2021/03/23 03:59:06;;;;;;;10.77;7.17;;;6.70;99.90;;;;;;4961781;28;20743;-79
2021/03/23 04:01:32;;;;;;;13.43;6.23;;;6.60;99.90;;;;;;4967247;28;20285;-77
2021/03/23 04:03:57;;;;;;;10.63;6.87;;;6.60;99.90;;;;;;4950330;28;20311;-78
2021/03/23 04:06:23;;;;;;;11.30;7.43;;;6.60;99.90;;;;;;4963955;28;20226;-79
2021/03/23 04:08:49;;;;;;;11.60;6.50;;;6.60;99.90;;;;;;4969639;28;20220;-78
2021/03/23 04:11:14;;;;;;;10.40;6.40;;;6.60;99.90;;;;;;4962542;28;20211;-79
2021/03/23 04:13:40;;;;;;;13.80;7.40;;;6.40;99.90;;;;;;4972711;28;20301;-79
2021/03/23 04:16:06;;;;;;;8.80;6.50;;;6.50;99.90;;;;;;4969331;28;20553;-79
2021/03/23 04:18:32;;;;;;;9.80;6.77;;;6.50;99.90;;;;;;4967993;28;20194;-78
2021/03/23 04:21:00;;;;;;;9.60;6.20;;;6.50;99.90;;;;;;4966576;28;20465;-79
2021/03/23 04:23:33;;;;;;;10.87;6.00;;;6.50;99.90;;;;;;4965275;28;20453;-79
2021/03/23 04:26:00;;;;;;;8.73;6.73;;;6.50;99.90;;;;;;4963854;28;20835;-78
2021/03/23 04:28:26;;;;;;;9.93;7.20;;;6.50;99.90;;;;;;4962976;28;20445;-79
2021/03/23 04:30:52;;;;;;;9.20;6.90;;;6.60;99.90;;;;;;4965896;28;20461;-79
2021/03/23 04:33:21;;;;;;;11.40;6.50;;;6.70;99.90;;;;;;4965171;28;20461;-80
2021/03/23 04:35:59;;;;;;;13.07;7.23;;;6.80;99.90;;;;;;4965120;28;20441;-77
2021/03/23 04:38:29;;;;;;;11.30;6.53;;;6.80;99.90;;;;;;4965699;28;20450;-78
2021/03/23 04:40:56;;;;;;;10.33;6.30;;;6.80;99.90;;;;;;4967638;28;21020;-78
2021/03/23 04:43:28;;;;;;;18.83;6.73;;;6.70;99.90;;;;;;4968074;28;20907;-78
2021/03/23 04:45:54;;;;;;;10.97;6.80;;;6.60;99.90;;;;;;4963539;28;20844;-78
2021/03/23 04:48:21;;;;;;;8.97;6.20;;;6.70;99.90;;;;;;4964597;28;20489;-78
2021/03/23 04:50:47;;;;;;;15.50;7.50;;;6.70;99.90;;;;;;4969014;28;20516;-78
2021/03/23 04:53:29;;;;;;;9.23;6.70;;;6.70;99.90;;;;;;4965874;28;20834;-78
2021/03/23 04:55:55;;;;;;;11.60;6.33;;;6.70;99.90;;;;;;4964821;28;20454;-79
2021/03/23 04:58:22;;;;;;;15.77;6.40;;;6.70;99.90;;;;;;4964577;28;20429;-77
2021/03/23 05:00:48;;;;;;;10.43;6.90;;;6.60;99.90;;;;;;4967819;28;20458;-78
2021/03/23 05:03:20;;;;;;;9.23;6.40;;;6.50;99.90;;;;;;4963693;28;20468;-78
2021/03/23 05:05:46;;;;;;;14.83;6.93;;;6.50;99.90;;;;;;4962924;28;20461;-78
2021/03/23 05:08:12;;;;;;;9.00;7.33;;;6.50;99.90;;;;;;4962127;28;21057;-78
2021/03/23 05:10:38;;;;;;;8.33;6.83;;;6.40;99.90;;;;;;4964001;28;20222;-79
2021/03/23 05:13:05;;;;;;;12.83;7.07;;;6.40;99.90;;;;;;4968218;28;20635;-78
2021/03/23 05:15:31;;;;;;;13.53;7.10;;;6.30;99.90;;;;;;4966023;28;21234;-78
2021/03/23 05:17:57;;;;;;;8.90;6.20;;;6.20;99.90;;;;;;4989771;28;20441;-77
2021/03/23 05:20:23;;;;;;;12.37;7.73;;;6.10;99.90;;;;;;4972032;28;20514;-77
2021/03/23 05:22:49;;;;;;;10.37;5.60;;;6.20;99.90;;;;;;4989551;28;20175;-77
2021/03/23 05:25:15;;;;;;;8.90;6.77;;;6.20;99.90;;;;;;4985325;28;20967;-77
2021/03/23 05:27:40;;;;;;;14.60;6.10;;;6.30;99.90;;;;;;4966992;28;20533;-77
2021/03/23 05:30:07;;;;;;;13.20;7.33;;;6.30;99.90;;;;;;4964221;28;20548;-78
2021/03/23 05:32:33;;;;;;;14.00;7.50;;;6.30;99.90;;;;;;4965842;28;20245;-79
2021/03/23 05:34:59;;;;;;;10.03;7.00;;;6.30;99.90;;;;;;4965310;28;20442;-80
2021/03/23 05:37:25;;;;;;;11.07;7.13;;;6.30;99.90;;;;;;4964106;28;20199;-77
2021/03/23 05:39:50;;;;;;;7.87;5.97;;;6.30;99.90;;;;;;4962527;28;20461;-78
2021/03/23 05:42:27;;;;;;;9.50;5.87;;;6.30;99.90;;;;;;4970272;28;20236;-79
2021/03/23 05:45:01;;;;;;;10.20;6.50;;;6.40;99.90;;;;;;4961763;28;20232;-78
2021/03/23 05:47:36;;;;;;;10.40;6.40;;;6.50;99.90;;;;;;4966872;28;20453;-79
2021/03/23 05:50:28;;;;;;;9.97;6.10;;;6.50;99.90;;;;;;4965577;28;20834;-79
2021/03/23 05:52:53;;;;;;;12.93;6.60;;;6.40;99.90;;;;;;4965958;28;20505;-78
2021/03/23 05:55:40;;;;;;;8.57;6.10;;;6.40;99.90;;;;;;4966472;28;20500;-78
2021/03/23 05:58:12;;;;;;;8.50;6.63;;;6.40;99.90;;;;;;4960668;28;20226;-78
2021/03/23 06:00:39;;;;;;;15.03;6.50;;;6.40;99.90;;;;;;4966861;28;20489;-78
2021/03/23 06:03:08;;;;;;;11.50;6.13;;;6.50;99.90;;;;;;4961391;28;20442;-78
2021/03/23 06:06:00;;;;;;;9.20;6.30;;;6.40;99.90;;;;;;4957480;28;20466;-78
2021/03/23 06:08:30;;;;;;;10.50;6.90;;;6.50;99.90;;;;;;4967472;28;20880;-79
2021/03/23 06:11:05;;;;;;;12.00;6.90;;;6.70;99.90;;;;;;4963521;28;20462;-78
2021/03/23 06:13:56;;;;;;;9.03;6.03;;;6.80;99.90;;;;;;4965907;28;20440;-76
2021/03/23 06:16:40;;;;;;;13.47;7.40;;;6.80;99.90;;;;;;4963358;28;20434;-78
2021/03/23 06:19:29;;;;;;;6.97;6.00;;;6.90;99.90;;;;;;4960312;28;20488;-78
2021/03/23 06:22:16;;;;;;;9.93;7.17;;;6.90;99.90;;;;;;4964648;28;20570;-77
2021/03/23 06:24:57;;;;;;;9.13;7.33;;;6.90;99.90;;;;;;4964988;28;20502;-77
2021/03/23 06:27:25;;;;;;;11.47;6.30;;;7.00;99.90;;;;;;4961727;28;20874;-77
2021/03/23 06:30:24;;;;;;;10.37;7.47;;;7.00;99.90;;;;;;4962707;28;20435;-77
2021/03/23 06:32:52;;;;;;;12.33;6.50;;;7.10;99.90;;;;;;4963361;28;20448;-78
2021/03/23 06:35:27;;;;;;;10.50;6.50;;;7.20;99.90;;;;;;4959564;28;20441;-78
2021/03/23 06:37:52;;;;;;;9.50;6.83;;;7.20;99.90;;;;;;4960196;28;20437;-77
2021/03/23 06:40:22;;;;;;;16.50;6.37;;;7.20;99.90;;;;;;4963666;28;20885;-79
2021/03/23 06:42:51;;;;;;;15.90;7.17;;;7.30;99.90;;;;;;4956555;28;20193;-77
2021/03/23 06:45:37;;;;;;;8.97;6.63;;;7.10;99.90;;;;;;4960081;28;20487;-77
2021/03/23 06:48:28;;;;;;;11.27;6.20;;;7.20;99.90;;;;;;4965424;28;20426;-77
2021/03/23 06:51:14;;;;;;;12.20;6.63;;;7.20;99.90;;;;;;4963673;28;20461;-78
2021/03/23 06:53:41;;;;;;;10.10;6.67;;;7.20;99.90;;;;;;4966149;28;20445;-77
2021/03/23 06:56:25;;;;;;;9.70;6.00;;;7.30;99.90;;;;;;4964252;28;20434;-78
2021/03/23 06:59:09;;;;;;;15.37;6.93;;;7.40;99.90;;;;;;4969253;28;21010;-77
2021/03/23 07:01:49;;;;;;;9.57;6.93;;;7.30;99.90;;;;;;4966815;28;20461;-78
2021/03/23 07:04:39;;;;;;;9.03;6.43;;;7.40;99.90;;;;;;4968118;28;20441;-78
2021/03/23 07:07:18;;;;;;;7.87;6.37;;;7.40;99.90;;;;;;4969930;28;20556;-78
2021/03/23 07:09:57;;;;;;;11.40;7.13;;;7.30;99.90;;;;;;4969117;28;20814;-77
2021/03/23 07:12:47;;;;;;;12.17;7.83;;;7.40;99.90;;;;;;4965895;28;20452;-78
2021/03/23 07:15:19;;;;;;;10.20;7.27;;;7.30;99.90;;;;;;4964684;28;20442;-77
2021/03/23 07:17:53;;;;;;;14.47;6.70;;;7.40;99.90;;;;;;4971033;28;24389;-77
2021/03/23 07:20:28;;;;;;;11.10;7.30;;;7.50;99.90;;;;;;4971201;28;20451;-77
2021/03/23 07:22:55;;;;;;;12.33;7.10;;;7.60;99.90;;;;;;4967676;28;20432;-77
2021/03/23 07:25:39;;;;;;;11.73;7.40;;;7.70;99.90;;;;;;4972581;28;20441;-78
2021/03/23 07:28:23;;;;;;;10.53;7.37;;;7.80;99.90;;;;;;4965885;28;20926;-77
2021/03/23 07:31:02;;;;;;;11.67;7.43;;;7.90;99.90;;;;;;4971878;28;21003;-77
2021/03/23 07:33:33;;;;;;;11.57;8.23;;;7.80;99.90;;;;;;4967668;28;20443;-77
2021/03/23 07:36:01;;;;;;;13.20;9.10;;;7.90;99.90;;;;;;4966730;28;20472;-78
2021/03/23 07:38:57;;;;;;;11.53;8.10;;;8.00;99.90;;;;;;4966679;28;20434;-77
2021/03/23 07:41:45;;;;;;;17.23;8.33;;;8.10;99.90;;;;;;4959895;28;21169;-78
2021/03/23 07:44:27;;;;;;;12.53;9.27;;;7.80;99.90;;;;;;4965735;28;20457;-78
2021/03/23 07:46:58;;;;;;;13.27;8.00;;;7.90;99.90;;;;;;4965322;28;20829;-77
2021/03/23 07:49:31;;;;;;;11.90;7.77;;;7.80;99.90;;;;;;4986885;28;20432;-78
2021/03/23 07:52:00;;;;;;;17.20;8.67;;;7.90;99.90;;;;;;4980599;28;20424;-77
2021/03/23 07:54:39;;;;;;;16.27;9.97;;;8.00;99.90;;;;;;4985478;28;20471;-78
2021/03/23 07:57:36;;;;;;;10.20;7.97;;;8.20;99.90;;;;;;4986973;28;20425;-78
2021/03/23 08:00:15;;;;;;;12.20;8.17;;;8.30;99.90;;;;;;4965129;28;20460;-78
2021/03/23 08:02:54;;;;;;;17.40;9.03;;;8.50;99.90;;;;;;4963822;28;20513;-77
2021/03/23 08:05:54;;;;;;;12.57;8.93;;;8.50;99.90;;;;;;4961589;28;21303;-77
2021/03/23 08:08:31;;;;;;;11.97;9.00;;;8.50;99.90;;;;;;4962951;28;20496;-77
2021/03/23 08:11:18;;;;;;;13.50;8.97;;;8.40;99.90;;;;;;4960165;28;20681;-78
2021/03/23 08:14:17;;;;;;;12.40;9.10;;;8.60;99.90;;;;;;4963592;28;20563;-77
2021/03/23 08:17:01;;;;;;;12.93;9.03;;;8.70;99.90;;;;;;4968325;28;20448;-78
2021/03/23 08:19:45;;;;;;;15.97;9.63;;;8.80;99.90;;;;;;4964292;28;20525;-78
2021/03/23 08:22:22;;;;;;;15.60;9.47;;;8.90;99.90;;;;;;4966505;28;20449;-77
2021/03/23 08:25:14;;;;;;;21.97;10.33;;;8.60;99.90;;;;;;4962529;28;20528;-77
2021/03/23 08:27:58;;;;;;;19.80;10.90;;;8.70;99.90;;;;;;4959607;28;20434;-68
2021/03/23 08:31:03;;;;;;;18.50;9.50;;;8.80;99.90;;;;;;4962665;28;20528;-67
2021/03/23 08:34:00;;;;;;;21.33;10.90;;;9.10;99.90;;;;;;4963204;28;21981;-68
2021/03/23 08:36:44;;;;;;;19.87;10.23;;;9.10;99.90;;;;;;4959515;28;20961;-66
2021/03/23 08:39:14;;;;;;;15.33;10.67;;;9.30;99.90;;;;;;4964474;28;20422;-67
2021/03/23 08:41:55;;;;;;;13.97;9.40;;;9.40;99.90;;;;;;4964251;28;20553;-67
2021/03/23 08:44:37;;;;;;;16.90;10.27;;;9.30;99.90;;;;;;4964979;28;20422;-78
2021/03/23 08:47:39;;;;;;;14.70;9.90;;;9.40;99.90;;;;;;4964420;28;20927;-78
2021/03/23 08:50:29;;;;;;;16.33;10.10;;;9.60;99.90;;;;;;4961209;28;20954;-77
2021/03/23 08:52:57;;;;;;;17.23;10.53;;;9.80;99.90;;;;;;4962580;28;20963;-78
2021/03/23 08:55:29;;;;;;;16.60;10.67;;;9.90;99.90;;;;;;4958847;28;20477;-78
2021/03/23 08:58:07;;;;;;;25.40;10.83;;;10.00;99.90;;;;;;4961416;28;20461;-77
2021/03/23 09:00:35;;;;;;;16.70;10.60;;;9.90;99.90;;;;;;4963711;28;20518;-70
2021/03/23 09:03:11;;;;;;;21.80;11.53;;;10.00;99.90;;;;;;4962672;28;20444;-75
2021/03/23 09:05:51;;;;;;;21.00;11.40;;;10.20;99.90;;;;;;4963787;28;20511;-71
2021/03/23 09:08:33;;;;;;;23.13;11.87;;;10.30;99.90;;;;;;4959534;28;20486;-73
2021/03/23 09:11:30;;;;;;;23.07;11.50;;;10.30;99.90;;;;;;4959349;28;20462;-74
2021/03/23 09:14:09;;;;;;;17.30;11.03;;;10.40;99.90;;;;;;4964071;28;20448;-74
2021/03/23 09:17:14;;;;;;;26.70;12.03;;;10.30;99.90;;;;;;4961839;28;20449;-79
2021/03/23 09:19:47;;;;;;;20.77;11.37;;;10.40;99.90;;;;;;4963827;28;20453;-76
2021/03/23 09:22:29;;;;;;;18.53;10.73;;;10.50;99.90;;;;;;4967424;28;20450;-80
2021/03/23 09:25:20;;;;;;;20.27;11.43;;;10.60;99.90;;;;;;4965622;28;20552;-79
2021/03/23 09:27:49;;;;;;;19.00;11.67;;;10.30;99.90;;;;;;4963876;28;20448;-80
2021/03/23 09:30:51;;;;;;;19.03;11.33;;;10.50;99.90;;;;;;4976840;28;20421;-68
2021/03/23 09:33:32;;;;;;;19.83;11.20;;;10.70;99.90;;;;;;4959745;28;20532;-80
2021/03/23 09:36:14;;;;;;;20.40;12.00;;;10.80;99.90;;;;;;4968733;28;20500;-80
2021/03/23 09:39:13;;;;;;;23.10;13.03;;;11.00;99.90;;;;;;4967190;28;20442;-80
2021/03/23 09:41:38;;;;;;;17.20;10.87;;;11.00;99.90;;;;;;4959984;28;20489;-78
2021/03/23 09:44:04;;;;;;;18.93;11.17;;;11.00;99.90;;;;;;4960673;28;20529;-79
2021/03/23 09:46:46;;;;;;;23.17;11.83;;;11.10;99.90;;;;;;4967233;28;20207;-80
2021/03/23 09:49:20;;;;;;;19.83;11.60;;;11.40;99.90;;;;;;4963157;28;20194;-80
2021/03/23 09:52:09;;;;;;;20.10;11.83;;;11.60;99.90;;;;;;4954589;28;20452;-79
2021/03/23 09:54:38;;;;;;;16.30;12.07;;;11.60;99.90;;;;;;4969379;28;20442;-79
2021/03/23 09:57:14;;;;;;;23.97;12.50;;;11.80;99.90;;;;;;4975173;28;20430;-79
2021/03/23 09:59:46;;;;;;;20.60;12.87;;;11.90;99.90;;;;;;4969321;28;20528;-80
2021/03/23 10:02:32;;;;;;;21.47;12.50;;;11.90;99.90;;;;;;4969138;28;20794;-80
2021/03/23 10:05:19;;;;;;;32.73;14.53;;;11.90;99.90;;;;;;4969081;28;20449;-80
2021/03/23 10:07:47;;;;;;;26.53;15.60;;;11.50;99.90;;;;;;4968420;28;20442;-78
2021/03/23 10:10:30;;;;;;;21.27;13.57;;;11.50;99.90;;;;;;4972669;28;20473;-81
2021/03/23 10:13:57;;;;;;;23.73;14.33;;;11.70;99.90;;;;;;4968992;28;20835;-80
2021/03/23 10:16:33;;;;;;;30.30;15.93;;;11.50;99.90;;;;;;4965677;28;20434;-80
2021/03/23 10:19:11;;;;;;;30.33;15.30;;;11.40;99.90;;;;;;4978759;28;21138;-80
2021/03/23 10:21:44;;;;;;;34.97;18.10;;;11.30;99.90;;;;;;4983741;28;20466;-80
2021/03/23 10:24:24;;;;;;;25.43;15.00;;;11.40;99.90;;;;;;4980563;28;20502;-77
2021/03/23 10:26:52;;;;;;;24.00;13.93;;;11.60;99.90;;;;;;4971845;28;20480;-78
2021/03/23 10:29:24;;;;;;;28.93;16.53;;;11.80;99.90;;;;;;4973458;28;20414;-80
2021/03/23 10:31:52;;;;;;;29.70;15.57;;;11.80;99.90;;;;;;4972427;28;20461;-78
2021/03/23 10:34:25;;;;;;;22.97;14.20;;;12.00;99.90;;;;;;4973827;28;20448;-81
2021/03/23 10:36:54;;;;;;;23.53;13.90;;;11.90;99.90;;;;;;4973110;28;20477;-78
2021/03/23 10:39:38;;;;;;;24.20;14.50;;;11.70;99.90;;;;;;4975043;28;20897;-80
2021/03/23 10:42:24;;;;;;;23.37;14.70;;;12.00;99.90;;;;;;4968498;28;20501;-79
2021/03/23 10:45:28;;;;;;;21.77;13.07;;;11.90;99.90;;;;;;4970098;28;20512;-80
2021/03/23 10:48:07;;;;;;;20.13;14.00;;;11.90;99.90;;;;;;4969724;28;20435;-80
2021/03/23 10:50:33;;;;;;;22.17;13.40;;;12.00;99.90;;;;;;4968593;28;20419;-80
2021/03/23 10:53:12;;;;;;;22.40;15.13;;;12.20;99.90;;;;;;4966619;28;20562;-80
2021/03/23 10:55:44;;;;;;;22.60;13.30;;;12.00;99.90;;;;;;4958292;28;20450;-77
2021/03/23 10:58:13;;;;;;;24.10;14.07;;;12.00;99.90;;;;;;4961745;28;20469;-79
2021/03/23 11:00:39;;;;;;;20.53;13.50;;;12.00;99.90;;;;;;4959414;28;20473;-79
2021/03/23 11:03:12;;;;;;;22.73;13.33;;;11.70;99.90;;;;;;4967404;28;20444;-79
2021/03/23 11:05:50;;;;;;;22.40;12.40;;;11.80;99.90;;;;;;4964393;28;20471;-79
2021/03/23 11:08:17;;;;;;;21.30;13.37;;;11.70;99.90;;;;;;4967279;28;20425;-80
2021/03/23 11:10:43;;;;;;;24.20;13.07;;;11.60;99.90;;;;;;4962085;28;20802;-78
2021/03/23 11:13:14;;;;;;;22.27;12.70;;;11.50;99.90;;;;;;4965457;28;20476;-79
2021/03/23 11:15:46;;;;;;;22.63;13.97;;;11.20;99.90;;;;;;4965601;28;20446;-80
2021/03/23 11:18:19;;;;;;;21.03;13.70;;;11.10;99.90;;;;;;4970948;28;20464;-79
2021/03/23 11:20:46;;;;;;;21.43;12.27;;;11.00;99.90;;;;;;4963129;28;20458;-79
2021/03/23 11:23:38;;;;;;;20.17;12.40;;;11.20;99.90;;;;;;4963362;28;20453;-79
2021/03/23 11:26:06;;;;;;;19.47;11.37;;;11.30;99.90;;;;;;4959518;28;20588;-79
2021/03/23 11:28:32;;;;;;;20.10;12.33;;;11.40;99.90;;;;;;4970670;28;20438;-80
2021/03/23 11:31:02;;;;;;;19.17;13.10;;;11.50;99.90;;;;;;4969934;28;20445;-81
2021/03/23 11:33:28;;;;;;;19.97;13.20;;;11.50;99.90;;;;;;4974380;28;20189;-82
2021/03/23 11:35:54;;;;;;;17.93;12.10;;;11.50;99.90;;;;;;4972946;28;20452;-80
2021/03/23 11:38:23;;;;;;;19.73;11.90;;;11.60;99.90;;;;;;4971839;28;20434;-81
2021/03/23 11:40:52;;;;;;;19.67;11.93;;;11.60;99.90;;;;;;4966324;28;20297;-81
2021/03/23 11:43:25;;;;;;;21.40;12.20;;;11.70;99.90;;;;;;4967811;28;20429;-84
2021/03/23 11:45:53;;;;;;;20.37;12.43;;;11.60;99.90;;;;;;4972257;28;20560;-79
2021/03/23 11:48:20;;;;;;;19.03;12.23;;;11.40;99.90;;;;;;4969049;28;20477;-82
2021/03/23 11:50:50;;;;;;;18.27;10.33;;;11.40;99.90;;;;;;4970632;28;20454;-81
2021/03/23 11:53:17;;;;;;;17.90;12.10;;;11.60;99.90;;;;;;4969031;28;20857;-81
2021/03/23 11:55:44;;;;;;;18.23;11.97;;;11.60;99.90;;;;;;4969210;28;20482;-80
2021/03/23 11:58:11;;;;;;;28.77;16.57;;;11.70;99.90;;;;;;4967411;28;20449;-82
2021/03/23 12:00:38;;;;;;;17.70;11.70;;;11.80;99.90;;;;;;4964888;28;20469;-80
2021/03/23 12:03:06;;;;;;;18.90;11.30;;;11.90;99.90;;;;;;4971978;28;20434;-81
2021/03/23 12:05:35;;;;;;;17.40;12.50;;;12.10;99.90;;;;;;4970019;28;20449;-81
2021/03/23 12:08:09;;;;;;;16.60;10.53;;;12.20;99.90;;;;;;4974490;28;20438;-81
2021/03/23 12:10:49;;;;;;;17.73;11.20;;;12.40;99.90;;;;;;4971496;28;21213;-81
2021/03/23 12:13:39;;;;;;;21.80;11.30;;;12.70;99.90;;;;;;4969589;28;20462;-81
2021/03/23 12:16:16;;;;;;;18.07;10.87;;;12.90;99.90;;;;;;4966260;28;20414;-76
2021/03/23 12:18:49;;;;;;;17.90;11.13;;;13.10;99.30;;;;;;4964437;28;20456;-80
2021/03/23 12:21:16;;;;;;;15.50;11.30;;;13.50;98.90;;;;;;4962761;28;20477;-80
2021/03/23 12:23:42;;;;;;;20.00;10.57;;;13.50;97.80;;;;;;4966388;28;20461;-81
2021/03/23 12:26:08;;;;;;;15.73;11.17;;;13.40;97.30;;;;;;4966799;28;20473;-78
2021/03/23 12:28:33;;;;;;;19.83;11.80;;;13.20;95.90;;;;;;4969975;28;21217;-76
2021/03/23 12:30:59;;;;;;;16.67;11.40;;;13.00;96.90;;;;;;4962513;28;20457;-79
2021/03/23 12:33:24;;;;;;;18.57;10.20;;;12.90;95.80;;;;;;4953031;28;20281;-78
2021/03/23 12:35:50;;;;;;;13.60;9.37;;;12.60;95.20;;;;;;4961272;28;20194;-78
2021/03/23 12:38:16;;;;;;;14.47;10.30;;;12.60;94.60;;;;;;4963999;28;20832;-77
2021/03/23 12:40:42;;;;;;;15.30;10.50;;;12.70;95.20;;;;;;4956960;28;20226;-80
2021/03/23 12:43:15;;;;;;;13.03;8.73;;;12.70;94.80;;;;;;4959706;28;20485;-79
2021/03/23 12:45:42;;;;;;;17.70;9.20;;;12.80;93.50;;;;;;4964536;28;20211;-81
2021/03/23 12:48:09;;;;;;;14.43;9.30;;;12.80;94.10;;;;;;4972211;28;20675;-70
2021/03/23 12:50:36;;;;;;;12.40;9.20;;;12.60;93.60;;;;;;4983846;28;20466;-78
2021/03/23 12:53:07;;;;;;;15.67;10.10;;;12.40;93.90;;;;;;4974338;28;20430;-79
2021/03/23 12:55:34;;;;;;;14.47;8.10;;;12.30;94.00;;;;;;4992159;28;20485;-77
2021/03/23 12:58:02;;;;;;;13.10;9.27;;;12.30;94.20;;;;;;4976123;28;20449;-77
2021/03/23 13:00:38;;;;;;;11.80;9.00;;;12.40;94.50;;;;;;4962880;28;20441;-71
2021/03/23 13:03:04;;;;;;;11.73;8.90;;;12.50;94.20;;;;;;4959840;28;20551;-74
2021/03/23 13:05:31;;;;;;;10.20;9.10;;;12.40;93.70;;;;;;4957161;28;20462;-76
2021/03/23 13:08:06;;;;;;;13.03;8.30;;;12.40;93.30;;;;;;4961164;28;20442;-77
2021/03/23 13:10:37;;;;;;;10.00;8.43;;;12.00;92.70;;;;;;4958224;28;20453;-74